METAR Data
IDs: Format: Raw Decoded Include TAF

Data at: 0307 UTC 24 Jun 2021

METAR for:KEDJ (Bellefontaine Rgnl, OH, US)
Text:KEDJ 240255Z AUTO 18007KT 10SM CLR 19/10 A3018 RMK AO1
Temperature: 19.0°C ( 66°F)
Dewpoint: 10.0°C ( 50°F) [RH = 56%]
Pressure (altimeter):30.18 inches Hg (1022.1 mb)
Winds:from the S (180 degrees) at 8 MPH (7 knots; 3.6 m/s)
Visibility:10 or more sm (16+ km)
Ceiling:at least 12,000 feet AGL
Clouds:sky clear below 12,000 feet AGL
QC Flag:automated observation with no human augmentation